sensor_id;sensor_type;location;lat;lon;timestamp;P1;durP1;ratioP1;P2;durP2;ratioP2
57889;SDS011;43707;50.184;18.966;2023-04-06T00:02:16;2.80;;;2.10;;
57889;SDS011;43707;50.184;18.966;2023-04-06T00:04:41;3.20;;;2.10;;
57889;SDS011;43707;50.184;18.966;2023-04-06T00:07:07;4.60;;;2.70;;
57889;SDS011;43707;50.184;18.966;2023-04-06T00:09:32;2.30;;;1.70;;
57889;SDS011;43707;50.184;18.966;2023-04-06T00:11:58;3.90;;;2.20;;
57889;SDS011;43707;50.184;18.966;2023-04-06T00:14:23;2.80;;;1.90;;
57889;SDS011;43707;50.184;18.966;2023-04-06T00:16:49;3.40;;;2.00;;
57889;SDS011;43707;50.184;18.966;2023-04-06T00:19:14;3.10;;;2.10;;
57889;SDS011;43707;50.184;18.966;2023-04-06T00:21:40;3.20;;;2.10;;
57889;SDS011;43707;50.184;18.966;2023-04-06T00:24:06;3.90;;;2.30;;
57889;SDS011;43707;50.184;18.966;2023-04-06T00:26:31;3.30;;;2.10;;
57889;SDS011;43707;50.184;18.966;2023-04-06T00:28:57;3.60;;;2.10;;
57889;SDS011;43707;50.184;18.966;2023-04-06T00:31:23;3.60;;;2.30;;
57889;SDS011;43707;50.184;18.966;2023-04-06T00:33:49;3.20;;;2.30;;
57889;SDS011;43707;50.184;18.966;2023-04-06T00:36:15;3.50;;;2.10;;
57889;SDS011;43707;50.184;18.966;2023-04-06T00:38:40;3.20;;;2.20;;
57889;SDS011;43707;50.184;18.966;2023-04-06T00:41:05;3.10;;;2.40;;
57889;SDS011;43707;50.184;18.966;2023-04-06T00:43:31;5.10;;;2.40;;
57889;SDS011;43707;50.184;18.966;2023-04-06T00:45:57;3.40;;;2.10;;
57889;SDS011;43707;50.184;18.966;2023-04-06T00:48:22;2.90;;;2.20;;
57889;SDS011;43707;50.184;18.966;2023-04-06T00:50:48;3.40;;;2.40;;
57889;SDS011;43707;50.184;18.966;2023-04-06T00:53:13;3.50;;;2.20;;
57889;SDS011;43707;50.184;18.966;2023-04-06T00:55:39;3.00;;;2.20;;
57889;SDS011;43707;50.184;18.966;2023-04-06T00:58:04;4.10;;;2.00;;
57889;SDS011;43707;50.184;18.966;2023-04-06T01:00:31;3.00;;;2.30;;
57889;SDS011;43707;50.184;18.966;2023-04-06T01:02:57;3.20;;;2.10;;
57889;SDS011;43707;50.184;18.966;2023-04-06T01:05:22;2.70;;;2.10;;
57889;SDS011;43707;50.184;18.966;2023-04-06T01:07:48;3.80;;;2.20;;
57889;SDS011;43707;50.184;18.966;2023-04-06T01:10:23;3.50;;;2.10;;
57889;SDS011;43707;50.184;18.966;2023-04-06T01:12:49;5.60;;;2.30;;
57889;SDS011;43707;50.184;18.966;2023-04-06T01:15:15;3.40;;;2.60;;
57889;SDS011;43707;50.184;18.966;2023-04-06T01:17:41;3.00;;;1.90;;
57889;SDS011;43707;50.184;18.966;2023-04-06T01:20:07;3.20;;;2.40;;
57889;SDS011;43707;50.184;18.966;2023-04-06T01:22:33;3.50;;;2.50;;
57889;SDS011;43707;50.184;18.966;2023-04-06T01:24:58;3.60;;;2.00;;
57889;SDS011;43707;50.184;18.966;2023-04-06T01:27:23;2.70;;;2.00;;
57889;SDS011;43707;50.184;18.966;2023-04-06T01:29:50;4.70;;;2.60;;
57889;SDS011;43707;50.184;18.966;2023-04-06T01:32:16;3.20;;;2.60;;
57889;SDS011;43707;50.184;18.966;2023-04-06T01:34:41;3.40;;;2.50;;
57889;SDS011;43707;50.184;18.966;2023-04-06T01:37:06;3.30;;;2.60;;
57889;SDS011;43707;50.184;18.966;2023-04-06T01:39:32;3.00;;;2.10;;
57889;SDS011;43707;50.184;18.966;2023-04-06T01:41:57;4.20;;;3.20;;
57889;SDS011;43707;50.184;18.966;2023-04-06T01:44:23;4.40;;;3.00;;
57889;SDS011;43707;50.184;18.966;2023-04-06T01:46:48;3.30;;;2.50;;
57889;SDS011;43707;50.184;18.966;2023-04-06T01:49:13;5.10;;;2.60;;
57889;SDS011;43707;50.184;18.966;2023-04-06T01:51:39;4.20;;;3.10;;
57889;SDS011;43707;50.184;18.966;2023-04-06T01:54:04;4.20;;;2.90;;
57889;SDS011;43707;50.184;18.966;2023-04-06T01:56:30;5.40;;;3.00;;
57889;SDS011;43707;50.184;18.966;2023-04-06T01:58:55;5.10;;;3.20;;
57889;SDS011;43707;50.184;18.966;2023-04-06T02:01:21;4.50;;;3.10;;
57889;SDS011;43707;50.184;18.966;2023-04-06T02:03:47;3.90;;;3.30;;
57889;SDS011;43707;50.184;18.966;2023-04-06T02:06:12;4.70;;;3.20;;
57889;SDS011;43707;50.184;18.966;2023-04-06T02:08:37;4.40;;;3.00;;
57889;SDS011;43707;50.184;18.966;2023-04-06T02:11:03;6.00;;;3.50;;
57889;SDS011;43707;50.184;18.966;2023-04-06T02:13:28;5.00;;;3.40;;
57889;SDS011;43707;50.184;18.966;2023-04-06T02:15:54;4.60;;;3.30;;
57889;SDS011;43707;50.184;18.966;2023-04-06T02:18:20;3.90;;;3.00;;
57889;SDS011;43707;50.184;18.966;2023-04-06T02:20:45;5.00;;;3.10;;
57889;SDS011;43707;50.184;18.966;2023-04-06T02:23:11;5.30;;;3.40;;
57889;SDS011;43707;50.184;18.966;2023-04-06T02:25:37;7.60;;;3.80;;
57889;SDS011;43707;50.184;18.966;2023-04-06T02:28:02;4.60;;;3.10;;
57889;SDS011;43707;50.184;18.966;2023-04-06T02:30:28;4.80;;;2.80;;
57889;SDS011;43707;50.184;18.966;2023-04-06T02:32:54;6.80;;;3.40;;
57889;SDS011;43707;50.184;18.966;2023-04-06T02:35:20;3.50;;;2.60;;
57889;SDS011;43707;50.184;18.966;2023-04-06T02:37:46;4.40;;;3.20;;
57889;SDS011;43707;50.184;18.966;2023-04-06T02:40:11;6.10;;;3.90;;
57889;SDS011;43707;50.184;18.966;2023-04-06T02:42:37;4.70;;;3.20;;
57889;SDS011;43707;50.184;18.966;2023-04-06T02:45:02;5.10;;;3.40;;
57889;SDS011;43707;50.184;18.966;2023-04-06T02:47:28;5.30;;;3.10;;
57889;SDS011;43707;50.184;18.966;2023-04-06T02:49:53;4.70;;;2.80;;
57889;SDS011;43707;50.184;18.966;2023-04-06T02:52:18;4.40;;;3.10;;
57889;SDS011;43707;50.184;18.966;2023-04-06T02:54:44;3.60;;;2.70;;
57889;SDS011;43707;50.184;18.966;2023-04-06T02:57:10;4.80;;;3.10;;
57889;SDS011;43707;50.184;18.966;2023-04-06T02:59:35;4.30;;;3.80;;
57889;SDS011;43707;50.184;18.966;2023-04-06T03:02:01;5.00;;;3.80;;
57889;SDS011;43707;50.184;18.966;2023-04-06T03:04:26;6.30;;;3.40;;
57889;SDS011;43707;50.184;18.966;2023-04-06T03:06:51;5.60;;;3.70;;
57889;SDS011;43707;50.184;18.966;2023-04-06T03:09:18;4.50;;;3.50;;
57889;SDS011;43707;50.184;18.966;2023-04-06T03:11:44;3.80;;;2.90;;
57889;SDS011;43707;50.184;18.966;2023-04-06T03:14:10;3.60;;;2.60;;
57889;SDS011;43707;50.184;18.966;2023-04-06T03:16:35;3.70;;;2.50;;
57889;SDS011;43707;50.184;18.966;2023-04-06T03:19:01;2.80;;;2.30;;
57889;SDS011;43707;50.184;18.966;2023-04-06T03:21:26;3.90;;;2.80;;
57889;SDS011;43707;50.184;18.966;2023-04-06T03:23:52;2.90;;;2.50;;
57889;SDS011;43707;50.184;18.966;2023-04-06T03:26:17;2.90;;;2.10;;
57889;SDS011;43707;50.184;18.966;2023-04-06T03:28:43;3.00;;;2.30;;
57889;SDS011;43707;50.184;18.966;2023-04-06T03:31:08;2.40;;;2.20;;
57889;SDS011;43707;50.184;18.966;2023-04-06T03:33:33;2.90;;;2.00;;
57889;SDS011;43707;50.184;18.966;2023-04-06T03:35:59;5.30;;;1.90;;
57889;SDS011;43707;50.184;18.966;2023-04-06T03:38:25;3.30;;;2.00;;
57889;SDS011;43707;50.184;18.966;2023-04-06T03:40:50;2.60;;;1.70;;
57889;SDS011;43707;50.184;18.966;2023-04-06T03:43:15;2.90;;;2.50;;
57889;SDS011;43707;50.184;18.966;2023-04-06T03:45:41;4.00;;;1.90;;
57889;SDS011;43707;50.184;18.966;2023-04-06T03:48:06;3.00;;;2.20;;
57889;SDS011;43707;50.184;18.966;2023-04-06T03:50:32;1.80;;;1.40;;
57889;SDS011;43707;50.184;18.966;2023-04-06T03:52:57;2.30;;;1.80;;
57889;SDS011;43707;50.184;18.966;2023-04-06T03:55:23;2.80;;;1.70;;
57889;SDS011;43707;50.184;18.966;2023-04-06T03:57:48;1.80;;;1.40;;
57889;SDS011;43707;50.184;18.966;2023-04-06T04:00:13;2.80;;;1.50;;
57889;SDS011;43707;50.184;18.966;2023-04-06T04:02:39;2.00;;;1.40;;
57889;SDS011;43707;50.184;18.966;2023-04-06T04:05:05;1.80;;;1.50;;
57889;SDS011;43707;50.184;18.966;2023-04-06T04:07:31;1.90;;;1.70;;
57889;SDS011;43707;50.184;18.966;2023-04-06T04:09:56;1.90;;;1.50;;
57889;SDS011;43707;50.184;18.966;2023-04-06T04:12:21;2.30;;;1.80;;
57889;SDS011;43707;50.184;18.966;2023-04-06T04:14:47;3.00;;;1.60;;
57889;SDS011;43707;50.184;18.966;2023-04-06T04:17:12;2.70;;;1.70;;
57889;SDS011;43707;50.184;18.966;2023-04-06T04:19:38;2.90;;;1.40;;
57889;SDS011;43707;50.184;18.966;2023-04-06T04:22:03;2.40;;;1.40;;
57889;SDS011;43707;50.184;18.966;2023-04-06T04:24:30;3.50;;;2.00;;
57889;SDS011;43707;50.184;18.966;2023-04-06T04:26:56;1.80;;;1.30;;
57889;SDS011;43707;50.184;18.966;2023-04-06T04:29:21;2.60;;;1.50;;
57889;SDS011;43707;50.184;18.966;2023-04-06T04:31:47;2.20;;;1.40;;
57889;SDS011;43707;50.184;18.966;2023-04-06T04:34:14;1.70;;;1.40;;
57889;SDS011;43707;50.184;18.966;2023-04-06T04:36:40;3.10;;;1.50;;
57889;SDS011;43707;50.184;18.966;2023-04-06T04:39:07;2.10;;;1.70;;
57889;SDS011;43707;50.184;18.966;2023-04-06T04:41:33;3.20;;;1.60;;
57889;SDS011;43707;50.184;18.966;2023-04-06T04:43:58;2.00;;;1.70;;
57889;SDS011;43707;50.184;18.966;2023-04-06T04:46:24;2.20;;;1.80;;
57889;SDS011;43707;50.184;18.966;2023-04-06T04:48:49;2.60;;;1.60;;
57889;SDS011;43707;50.184;18.966;2023-04-06T04:51:15;2.10;;;1.50;;
57889;SDS011;43707;50.184;18.966;2023-04-06T04:53:40;1.70;;;1.50;;
57889;SDS011;43707;50.184;18.966;2023-04-06T04:56:06;1.60;;;1.20;;
57889;SDS011;43707;50.184;18.966;2023-04-06T04:58:31;3.00;;;1.40;;
57889;SDS011;43707;50.184;18.966;2023-04-06T05:00:56;3.40;;;1.90;;
57889;SDS011;43707;50.184;18.966;2023-04-06T05:03:23;2.40;;;1.70;;
57889;SDS011;43707;50.184;18.966;2023-04-06T05:05:49;3.60;;;2.30;;
57889;SDS011;43707;50.184;18.966;2023-04-06T05:08:15;3.00;;;2.10;;
57889;SDS011;43707;50.184;18.966;2023-04-06T05:10:41;2.30;;;1.80;;
57889;SDS011;43707;50.184;18.966;2023-04-06T05:13:06;2.00;;;1.70;;
57889;SDS011;43707;50.184;18.966;2023-04-06T05:15:32;1.90;;;1.60;;
57889;SDS011;43707;50.184;18.966;2023-04-06T05:18:00;1.90;;;1.50;;
57889;SDS011;43707;50.184;18.966;2023-04-06T05:20:26;2.00;;;1.70;;
57889;SDS011;43707;50.184;18.966;2023-04-06T05:22:52;2.20;;;1.70;;
57889;SDS011;43707;50.184;18.966;2023-04-06T05:25:17;2.60;;;1.90;;
57889;SDS011;43707;50.184;18.966;2023-04-06T05:27:42;2.80;;;1.90;;
57889;SDS011;43707;50.184;18.966;2023-04-06T05:30:08;2.70;;;1.90;;
57889;SDS011;43707;50.184;18.966;2023-04-06T05:32:33;2.80;;;2.00;;
57889;SDS011;43707;50.184;18.966;2023-04-06T05:34:59;2.60;;;1.90;;
57889;SDS011;43707;50.184;18.966;2023-04-06T05:37:24;2.10;;;1.70;;
57889;SDS011;43707;50.184;18.966;2023-04-06T05:39:50;2.30;;;1.70;;
57889;SDS011;43707;50.184;18.966;2023-04-06T05:42:15;2.80;;;2.20;;
57889;SDS011;43707;50.184;18.966;2023-04-06T05:44:41;2.90;;;1.80;;
57889;SDS011;43707;50.184;18.966;2023-04-06T05:47:07;2.80;;;2.00;;
57889;SDS011;43707;50.184;18.966;2023-04-06T05:49:32;3.80;;;2.30;;
57889;SDS011;43707;50.184;18.966;2023-04-06T05:51:58;5.00;;;2.70;;
57889;SDS011;43707;50.184;18.966;2023-04-06T05:54:23;3.40;;;2.20;;
57889;SDS011;43707;50.184;18.966;2023-04-06T05:56:48;3.10;;;2.40;;
57889;SDS011;43707;50.184;18.966;2023-04-06T05:59:14;3.10;;;2.30;;
57889;SDS011;43707;50.184;18.966;2023-04-06T06:01:40;4.50;;;3.50;;
57889;SDS011;43707;50.184;18.966;2023-04-06T06:04:05;3.60;;;2.90;;
57889;SDS011;43707;50.184;18.966;2023-04-06T06:06:31;4.70;;;3.20;;
57889;SDS011;43707;50.184;18.966;2023-04-06T06:08:56;3.80;;;2.70;;
57889;SDS011;43707;50.184;18.966;2023-04-06T06:11:26;4.70;;;3.40;;
57889;SDS011;43707;50.184;18.966;2023-04-06T06:13:52;4.90;;;3.30;;
57889;SDS011;43707;50.184;18.966;2023-04-06T06:16:18;5.10;;;3.70;;
57889;SDS011;43707;50.184;18.966;2023-04-06T06:18:44;4.40;;;3.60;;
57889;SDS011;43707;50.184;18.966;2023-04-06T06:21:09;4.10;;;3.10;;
57889;SDS011;43707;50.184;18.966;2023-04-06T06:23:37;3.90;;;2.90;;
57889;SDS011;43707;50.184;18.966;2023-04-06T06:26:03;4.00;;;2.80;;
57889;SDS011;43707;50.184;18.966;2023-04-06T06:28:29;3.90;;;2.50;;
57889;SDS011;43707;50.184;18.966;2023-04-06T06:30:55;3.70;;;2.50;;
57889;SDS011;43707;50.184;18.966;2023-04-06T06:33:20;3.20;;;2.20;;
57889;SDS011;43707;50.184;18.966;2023-04-06T06:35:45;2.00;;;1.60;;
57889;SDS011;43707;50.184;18.966;2023-04-06T06:38:11;3.00;;;2.10;;
57889;SDS011;43707;50.184;18.966;2023-04-06T06:40:36;11.90;;;2.40;;
57889;SDS011;43707;50.184;18.966;2023-04-06T06:43:02;16.60;;;2.20;;
57889;SDS011;43707;50.184;18.966;2023-04-06T06:45:28;3.90;;;1.90;;
57889;SDS011;43707;50.184;18.966;2023-04-06T06:47:54;3.70;;;1.90;;
57889;SDS011;43707;50.184;18.966;2023-04-06T06:50:20;2.20;;;1.80;;
57889;SDS011;43707;50.184;18.966;2023-04-06T06:52:45;2.40;;;2.00;;
57889;SDS011;43707;50.184;18.966;2023-04-06T06:55:11;2.00;;;1.60;;
57889;SDS011;43707;50.184;18.966;2023-04-06T06:57:36;2.50;;;1.70;;
57889;SDS011;43707;50.184;18.966;2023-04-06T07:00:03;1.70;;;1.50;;
57889;SDS011;43707;50.184;18.966;2023-04-06T07:02:30;2.30;;;1.50;;
57889;SDS011;43707;50.184;18.966;2023-04-06T07:04:55;1.20;;;0.90;;
57889;SDS011;43707;50.184;18.966;2023-04-06T07:07:21;1.70;;;1.50;;
57889;SDS011;43707;50.184;18.966;2023-04-06T07:09:46;1.00;;;0.80;;
57889;SDS011;43707;50.184;18.966;2023-04-06T07:12:12;1.20;;;0.90;;
57889;SDS011;43707;50.184;18.966;2023-04-06T07:14:37;0.80;;;0.60;;
57889;SDS011;43707;50.184;18.966;2023-04-06T07:17:03;1.10;;;0.80;;
57889;SDS011;43707;50.184;18.966;2023-04-06T07:19:28;0.80;;;0.60;;
57889;SDS011;43707;50.184;18.966;2023-04-06T07:21:53;1.10;;;0.70;;
57889;SDS011;43707;50.184;18.966;2023-04-06T07:24:19;0.90;;;0.60;;
57889;SDS011;43707;50.184;18.966;2023-04-06T07:26:44;0.90;;;0.70;;
57889;SDS011;43707;50.184;18.966;2023-04-06T07:29:10;0.80;;;0.50;;
57889;SDS011;43707;50.184;18.966;2023-04-06T07:31:35;0.90;;;0.40;;
57889;SDS011;43707;50.184;18.966;2023-04-06T07:34:01;1.90;;;0.50;;
57889;SDS011;43707;50.184;18.966;2023-04-06T07:36:26;0.50;;;0.50;;
57889;SDS011;43707;50.184;18.966;2023-04-06T07:38:52;1.60;;;0.50;;
57889;SDS011;43707;50.184;18.966;2023-04-06T07:41:17;0.50;;;0.40;;
57889;SDS011;43707;50.184;18.966;2023-04-06T07:43:43;0.50;;;0.50;;
57889;SDS011;43707;50.184;18.966;2023-04-06T07:46:08;0.90;;;0.60;;
57889;SDS011;43707;50.184;18.966;2023-04-06T07:48:34;0.50;;;0.40;;
57889;SDS011;43707;50.184;18.966;2023-04-06T07:51:03;1.10;;;0.70;;
57889;SDS011;43707;50.184;18.966;2023-04-06T07:53:29;0.40;;;0.40;;
57889;SDS011;43707;50.184;18.966;2023-04-06T07:55:55;0.40;;;0.40;;
57889;SDS011;43707;50.184;18.966;2023-04-06T07:58:21;1.90;;;0.40;;
57889;SDS011;43707;50.184;18.966;2023-04-06T08:00:46;0.90;;;0.40;;
57889;SDS011;43707;50.184;18.966;2023-04-06T08:03:12;0.60;;;0.40;;
57889;SDS011;43707;50.184;18.966;2023-04-06T08:05:37;0.80;;;0.50;;
57889;SDS011;43707;50.184;18.966;2023-04-06T08:08:02;0.60;;;0.40;;
57889;SDS011;43707;50.184;18.966;2023-04-06T08:10:28;0.50;;;0.40;;
57889;SDS011;43707;50.184;18.966;2023-04-06T08:12:53;0.40;;;0.40;;
57889;SDS011;43707;50.184;18.966;2023-04-06T08:15:19;0.20;;;0.20;;
57889;SDS011;43707;50.184;18.966;2023-04-06T08:17:45;0.30;;;0.30;;
57889;SDS011;43707;50.184;18.966;2023-04-06T08:20:10;0.30;;;0.30;;
57889;SDS011;43707;50.184;18.966;2023-04-06T08:22:36;0.30;;;0.30;;
57889;SDS011;43707;50.184;18.966;2023-04-06T08:25:01;0.40;;;0.30;;
57889;SDS011;43707;50.184;18.966;2023-04-06T08:27:26;0.70;;;0.40;;
57889;SDS011;43707;50.184;18.966;2023-04-06T08:29:52;0.50;;;0.30;;
57889;SDS011;43707;50.184;18.966;2023-04-06T08:32:17;1.00;;;0.40;;
57889;SDS011;43707;50.184;18.966;2023-04-06T08:34:43;0.50;;;0.30;;
57889;SDS011;43707;50.184;18.966;2023-04-06T08:37:08;0.20;;;0.20;;
57889;SDS011;43707;50.184;18.966;2023-04-06T08:39:33;0.40;;;0.40;;
57889;SDS011;43707;50.184;18.966;2023-04-06T08:42:00;1.00;;;0.30;;
57889;SDS011;43707;50.184;18.966;2023-04-06T08:44:28;0.20;;;0.20;;
57889;SDS011;43707;50.184;18.966;2023-04-06T08:46:54;0.30;;;0.30;;
57889;SDS011;43707;50.184;18.966;2023-04-06T08:49:20;0.30;;;0.30;;
57889;SDS011;43707;50.184;18.966;2023-04-06T08:51:46;0.20;;;0.20;;
57889;SDS011;43707;50.184;18.966;2023-04-06T08:54:12;0.50;;;0.30;;
57889;SDS011;43707;50.184;18.966;2023-04-06T08:56:38;0.80;;;0.30;;
57889;SDS011;43707;50.184;18.966;2023-04-06T08:59:04;0.30;;;0.20;;
57889;SDS011;43707;50.184;18.966;2023-04-06T09:01:31;0.30;;;0.30;;
57889;SDS011;43707;50.184;18.966;2023-04-06T09:04:00;0.40;;;0.40;;
57889;SDS011;43707;50.184;18.966;2023-04-06T09:06:25;1.10;;;0.20;;
57889;SDS011;43707;50.184;18.966;2023-04-06T09:08:52;0.50;;;0.40;;
57889;SDS011;43707;50.184;18.966;2023-04-06T09:11:17;0.70;;;0.40;;
57889;SDS011;43707;50.184;18.966;2023-04-06T09:16:19;0.20;;;0.20;;
57889;SDS011;43707;50.184;18.966;2023-04-06T09:18:45;0.50;;;0.50;;
57889;SDS011;43707;50.184;18.966;2023-04-06T09:21:11;0.40;;;0.40;;
57889;SDS011;43707;50.184;18.966;2023-04-06T09:23:37;0.30;;;0.30;;
57889;SDS011;43707;50.184;18.966;2023-04-06T09:26:07;0.30;;;0.30;;
57889;SDS011;43707;50.184;18.966;2023-04-06T09:31:27;0.50;;;0.30;;
57889;SDS011;43707;50.184;18.966;2023-04-06T09:33:54;0.40;;;0.40;;
57889;SDS011;43707;50.184;18.966;2023-04-06T09:36:29;0.50;;;0.50;;
57889;SDS011;43707;50.184;18.966;2023-04-06T09:38:59;1.10;;;0.60;;
57889;SDS011;43707;50.184;18.966;2023-04-06T09:41:25;0.50;;;0.40;;
57889;SDS011;43707;50.184;18.966;2023-04-06T09:43:52;0.70;;;0.50;;
57889;SDS011;43707;50.184;18.966;2023-04-06T09:46:27;2.00;;;0.50;;
57889;SDS011;43707;50.184;18.966;2023-04-06T09:48:52;0.60;;;0.50;;
57889;SDS011;43707;50.184;18.966;2023-04-06T09:51:18;0.70;;;0.60;;
57889;SDS011;43707;50.184;18.966;2023-04-06T09:53:45;0.50;;;0.50;;
57889;SDS011;43707;50.184;18.966;2023-04-06T09:56:17;0.90;;;0.50;;
57889;SDS011;43707;50.184;18.966;2023-04-06T09:58:47;0.50;;;0.50;;
57889;SDS011;43707;50.184;18.966;2023-04-06T10:01:15;0.60;;;0.40;;
57889;SDS011;43707;50.184;18.966;2023-04-06T10:04:00;0.60;;;0.40;;
57889;SDS011;43707;50.184;18.966;2023-04-06T10:06:30;0.70;;;0.60;;
57889;SDS011;43707;50.184;18.966;2023-04-06T10:08:58;0.50;;;0.50;;
57889;SDS011;43707;50.184;18.966;2023-04-06T10:11:24;0.50;;;0.50;;
57889;SDS011;43707;50.184;18.966;2023-04-06T10:13:50;0.40;;;0.40;;
57889;SDS011;43707;50.184;18.966;2023-04-06T10:16:15;0.70;;;0.70;;
57889;SDS011;43707;50.184;18.966;2023-04-06T10:18:43;0.90;;;0.70;;
57889;SDS011;43707;50.184;18.966;2023-04-06T10:21:14;1.40;;;0.40;;
57889;SDS011;43707;50.184;18.966;2023-04-06T10:23:51;0.40;;;0.40;;
57889;SDS011;43707;50.184;18.966;2023-04-06T10:26:19;0.50;;;0.50;;
57889;SDS011;43707;50.184;18.966;2023-04-06T10:28:46;0.50;;;0.50;;
57889;SDS011;43707;50.184;18.966;2023-04-06T10:31:12;0.60;;;0.50;;
57889;SDS011;43707;50.184;18.966;2023-04-06T10:33:38;0.40;;;0.30;;
57889;SDS011;43707;50.184;18.966;2023-04-06T10:38:36;0.50;;;0.30;;
57889;SDS011;43707;50.184;18.966;2023-04-06T10:41:05;0.40;;;0.40;;
57889;SDS011;43707;50.184;18.966;2023-04-06T10:43:35;0.60;;;0.60;;
57889;SDS011;43707;50.184;18.966;2023-04-06T10:46:03;0.40;;;0.40;;
57889;SDS011;43707;50.184;18.966;2023-04-06T10:48:37;0.50;;;0.40;;
57889;SDS011;43707;50.184;18.966;2023-04-06T10:51:16;0.80;;;0.50;;
57889;SDS011;43707;50.184;18.966;2023-04-06T10:53:46;0.80;;;0.50;;
57889;SDS011;43707;50.184;18.966;2023-04-06T10:56:14;0.50;;;0.40;;
57889;SDS011;43707;50.184;18.966;2023-04-06T10:58:47;0.40;;;0.40;;
57889;SDS011;43707;50.184;18.966;2023-04-06T11:01:17;0.30;;;0.30;;
57889;SDS011;43707;50.184;18.966;2023-04-06T11:03:44;0.20;;;0.20;;
57889;SDS011;43707;50.184;18.966;2023-04-06T11:06:10;1.90;;;0.50;;
57889;SDS011;43707;50.184;18.966;2023-04-06T11:08:35;0.50;;;0.50;;
57889;SDS011;43707;50.184;18.966;2023-04-06T11:16:21;0.70;;;0.50;;
57889;SDS011;43707;50.184;18.966;2023-04-06T11:19:05;0.40;;;0.40;;
57889;SDS011;43707;50.184;18.966;2023-04-06T11:21:38;0.50;;;0.40;;
57889;SDS011;43707;50.184;18.966;2023-04-06T11:24:27;0.50;;;0.50;;
57889;SDS011;43707;50.184;18.966;2023-04-06T11:26:56;0.90;;;0.50;;
57889;SDS011;43707;50.184;18.966;2023-04-06T11:29:23;0.40;;;0.30;;
57889;SDS011;43707;50.184;18.966;2023-04-06T11:31:53;0.40;;;0.40;;
57889;SDS011;43707;50.184;18.966;2023-04-06T11:34:23;0.50;;;0.40;;
57889;SDS011;43707;50.184;18.966;2023-04-06T11:36:53;0.60;;;0.50;;
57889;SDS011;43707;50.184;18.966;2023-04-06T11:39:21;0.70;;;0.50;;
57889;SDS011;43707;50.184;18.966;2023-04-06T11:41:53;1.60;;;0.30;;
57889;SDS011;43707;50.184;18.966;2023-04-06T11:47:00;0.60;;;0.40;;
57889;SDS011;43707;50.184;18.966;2023-04-06T11:49:29;0.50;;;0.40;;
57889;SDS011;43707;50.184;18.966;2023-04-06T11:51:59;0.30;;;0.30;;
57889;SDS011;43707;50.184;18.966;2023-04-06T11:56:57;0.40;;;0.40;;
57889;SDS011;43707;50.184;18.966;2023-04-06T11:59:23;0.90;;;0.50;;
57889;SDS011;43707;50.184;18.966;2023-04-06T12:01:48;0.60;;;0.60;;
57889;SDS011;43707;50.184;18.966;2023-04-06T12:04:14;0.40;;;0.40;;
57889;SDS011;43707;50.184;18.966;2023-04-06T12:06:39;0.50;;;0.50;;
57889;SDS011;43707;50.184;18.966;2023-04-06T12:09:05;0.70;;;0.70;;
57889;SDS011;43707;50.184;18.966;2023-04-06T12:11:30;0.40;;;0.40;;
57889;SDS011;43707;50.184;18.966;2023-04-06T12:13:56;0.40;;;0.40;;
57889;SDS011;43707;50.184;18.966;2023-04-06T12:16:21;0.50;;;0.40;;
57889;SDS011;43707;50.184;18.966;2023-04-06T12:18:46;0.60;;;0.40;;
57889;SDS011;43707;50.184;18.966;2023-04-06T12:21:12;0.70;;;0.40;;
57889;SDS011;43707;50.184;18.966;2023-04-06T12:23:37;0.40;;;0.30;;
57889;SDS011;43707;50.184;18.966;2023-04-06T12:26:03;0.30;;;0.30;;
57889;SDS011;43707;50.184;18.966;2023-04-06T12:28:28;0.30;;;0.20;;
57889;SDS011;43707;50.184;18.966;2023-04-06T12:30:54;0.30;;;0.30;;
57889;SDS011;43707;50.184;18.966;2023-04-06T12:33:20;0.70;;;0.30;;
57889;SDS011;43707;50.184;18.966;2023-04-06T12:35:46;0.40;;;0.30;;
57889;SDS011;43707;50.184;18.966;2023-04-06T12:38:12;5.90;;;0.30;;
57889;SDS011;43707;50.184;18.966;2023-04-06T12:40:37;0.20;;;0.20;;
57889;SDS011;43707;50.184;18.966;2023-04-06T12:43:03;0.30;;;0.20;;
57889;SDS011;43707;50.184;18.966;2023-04-06T12:45:30;0.70;;;0.40;;
57889;SDS011;43707;50.184;18.966;2023-04-06T12:47:56;0.40;;;0.40;;
57889;SDS011;43707;50.184;18.966;2023-04-06T12:50:21;0.50;;;0.50;;
57889;SDS011;43707;50.184;18.966;2023-04-06T12:52:47;1.60;;;0.20;;
57889;SDS011;43707;50.184;18.966;2023-04-06T12:55:12;0.40;;;0.30;;
57889;SDS011;43707;50.184;18.966;2023-04-06T12:57:38;0.30;;;0.30;;
57889;SDS011;43707;50.184;18.966;2023-04-06T13:00:04;0.50;;;0.30;;
57889;SDS011;43707;50.184;18.966;2023-04-06T13:02:30;4.10;;;0.60;;
57889;SDS011;43707;50.184;18.966;2023-04-06T13:04:55;0.30;;;0.30;;
57889;SDS011;43707;50.184;18.966;2023-04-06T13:07:21;0.40;;;0.40;;
57889;SDS011;43707;50.184;18.966;2023-04-06T13:09:47;0.40;;;0.30;;
57889;SDS011;43707;50.184;18.966;2023-04-06T13:12:14;0.50;;;0.30;;
57889;SDS011;43707;50.184;18.966;2023-04-06T13:14:40;0.70;;;0.40;;
57889;SDS011;43707;50.184;18.966;2023-04-06T13:17:06;0.80;;;0.30;;
57889;SDS011;43707;50.184;18.966;2023-04-06T13:19:32;0.50;;;0.30;;
57889;SDS011;43707;50.184;18.966;2023-04-06T13:21:57;0.80;;;0.60;;
57889;SDS011;43707;50.184;18.966;2023-04-06T13:24:23;0.30;;;0.30;;
57889;SDS011;43707;50.184;18.966;2023-04-06T13:26:49;0.60;;;0.30;;
57889;SDS011;43707;50.184;18.966;2023-04-06T13:29:14;0.60;;;0.40;;
57889;SDS011;43707;50.184;18.966;2023-04-06T13:31:40;0.20;;;0.20;;
57889;SDS011;43707;50.184;18.966;2023-04-06T13:34:05;0.30;;;0.20;;
57889;SDS011;43707;50.184;18.966;2023-04-06T13:36:31;0.50;;;0.40;;
57889;SDS011;43707;50.184;18.966;2023-04-06T13:38:57;0.60;;;0.40;;
57889;SDS011;43707;50.184;18.966;2023-04-06T13:41:23;0.70;;;0.50;;
57889;SDS011;43707;50.184;18.966;2023-04-06T13:43:50;0.40;;;0.30;;
57889;SDS011;43707;50.184;18.966;2023-04-06T13:46:16;0.60;;;0.40;;
57889;SDS011;43707;50.184;18.966;2023-04-06T13:48:42;0.50;;;0.40;;
57889;SDS011;43707;50.184;18.966;2023-04-06T13:51:11;0.30;;;0.30;;
57889;SDS011;43707;50.184;18.966;2023-04-06T13:53:37;0.50;;;0.40;;
57889;SDS011;43707;50.184;18.966;2023-04-06T13:56:03;0.30;;;0.30;;
57889;SDS011;43707;50.184;18.966;2023-04-06T13:58:28;0.30;;;0.30;;
57889;SDS011;43707;50.184;18.966;2023-04-06T14:00:54;0.40;;;0.30;;
57889;SDS011;43707;50.184;18.966;2023-04-06T14:03:20;0.30;;;0.30;;
57889;SDS011;43707;50.184;18.966;2023-04-06T14:05:47;0.70;;;0.40;;
57889;SDS011;43707;50.184;18.966;2023-04-06T14:08:12;0.20;;;0.20;;
57889;SDS011;43707;50.184;18.966;2023-04-06T14:10:40;0.30;;;0.30;;
57889;SDS011;43707;50.184;18.966;2023-04-06T14:13:07;0.30;;;0.30;;
57889;SDS011;43707;50.184;18.966;2023-04-06T14:15:32;0.40;;;0.40;;
57889;SDS011;43707;50.184;18.966;2023-04-06T14:17:58;0.30;;;0.30;;
57889;SDS011;43707;50.184;18.966;2023-04-06T14:20:24;0.60;;;0.40;;
57889;SDS011;43707;50.184;18.966;2023-04-06T14:22:49;0.30;;;0.30;;
57889;SDS011;43707;50.184;18.966;2023-04-06T14:25:17;0.60;;;0.50;;
57889;SDS011;43707;50.184;18.966;2023-04-06T14:27:43;0.70;;;0.30;;
57889;SDS011;43707;50.184;18.966;2023-04-06T14:30:09;0.30;;;0.30;;
57889;SDS011;43707;50.184;18.966;2023-04-06T14:32:35;0.50;;;0.50;;
57889;SDS011;43707;50.184;18.966;2023-04-06T14:35:02;0.60;;;0.40;;
57889;SDS011;43707;50.184;18.966;2023-04-06T14:37:28;0.60;;;0.50;;
57889;SDS011;43707;50.184;18.966;2023-04-06T14:39:54;0.20;;;0.20;;
57889;SDS011;43707;50.184;18.966;2023-04-06T14:42:20;0.40;;;0.30;;
57889;SDS011;43707;50.184;18.966;2023-04-06T14:44:45;0.60;;;0.50;;
57889;SDS011;43707;50.184;18.966;2023-04-06T14:47:11;0.40;;;0.40;;